sensor_id;sensor_type;location;lat;lon;timestamp;P1;durP1;ratioP1;P2;durP2;ratioP2
30215;SDS011;17028;47.642;8.070;2022-10-16T00:03:36;2.45;;;1.17;;
30215;SDS011;17028;47.642;8.070;2022-10-16T00:08:38;4.45;;;1.60;;
30215;SDS011;17028;47.642;8.070;2022-10-16T00:13:40;4.40;;;1.92;;
30215;SDS011;17028;47.642;8.070;2022-10-16T00:18:42;2.90;;;1.70;;
30215;SDS011;17028;47.642;8.070;2022-10-16T00:23:43;3.03;;;1.80;;
30215;SDS011;17028;47.642;8.070;2022-10-16T00:28:45;2.05;;;1.25;;
30215;SDS011;17028;47.642;8.070;2022-10-16T00:38:56;1.70;;;1.10;;
30215;SDS011;17028;47.642;8.070;2022-10-16T00:44:01;1.60;;;1.10;;
30215;SDS011;17028;47.642;8.070;2022-10-16T00:49:05;2.10;;;1.33;;
30215;SDS011;17028;47.642;8.070;2022-10-16T00:54:10;4.72;;;1.60;;
30215;SDS011;17028;47.642;8.070;2022-10-16T00:59:22;2.30;;;1.48;;
30215;SDS011;17028;47.642;8.070;2022-10-16T01:04:28;2.45;;;1.50;;
30215;SDS011;17028;47.642;8.070;2022-10-16T01:14:58;2.42;;;1.30;;
30215;SDS011;17028;47.642;8.070;2022-10-16T01:30:55;2.20;;;1.40;;
30215;SDS011;17028;47.642;8.070;2022-10-16T01:36:02;1.92;;;1.30;;
30215;SDS011;17028;47.642;8.070;2022-10-16T01:41:13;1.95;;;1.30;;
30215;SDS011;17028;47.642;8.070;2022-10-16T01:46:20;2.28;;;1.30;;
30215;SDS011;17028;47.642;8.070;2022-10-16T01:51:22;3.30;;;1.30;;
30215;SDS011;17028;47.642;8.070;2022-10-16T01:56:25;2.03;;;1.15;;
30215;SDS011;17028;47.642;8.070;2022-10-16T02:01:27;1.83;;;1.20;;
30215;SDS011;17028;47.642;8.070;2022-10-16T02:06:32;2.72;;;1.40;;
30215;SDS011;17028;47.642;8.070;2022-10-16T02:11:33;2.55;;;1.30;;
30215;SDS011;17028;47.642;8.070;2022-10-16T02:16:38;2.55;;;1.50;;
30215;SDS011;17028;47.642;8.070;2022-10-16T02:21:43;2.10;;;1.30;;
30215;SDS011;17028;47.642;8.070;2022-10-16T02:26:49;2.38;;;1.38;;
30215;SDS011;17028;47.642;8.070;2022-10-16T02:31:59;2.72;;;1.40;;
30215;SDS011;17028;47.642;8.070;2022-10-16T02:37:04;2.80;;;1.58;;
30215;SDS011;17028;47.642;8.070;2022-10-16T02:42:14;4.85;;;1.60;;
30215;SDS011;17028;47.642;8.070;2022-10-16T02:47:15;3.40;;;1.63;;
30215;SDS011;17028;47.642;8.070;2022-10-16T02:52:16;4.10;;;1.50;;
30215;SDS011;17028;47.642;8.070;2022-10-16T02:57:18;2.50;;;1.50;;
30215;SDS011;17028;47.642;8.070;2022-10-16T03:02:19;3.13;;;1.63;;
30215;SDS011;17028;47.642;8.070;2022-10-16T03:07:20;2.63;;;1.55;;
30215;SDS011;17028;47.642;8.070;2022-10-16T03:12:21;5.47;;;1.65;;
30215;SDS011;17028;47.642;8.070;2022-10-16T03:17:22;4.10;;;1.75;;
30215;SDS011;17028;47.642;8.070;2022-10-16T03:22:24;5.20;;;1.85;;
30215;SDS011;17028;47.642;8.070;2022-10-16T03:27:25;2.60;;;1.60;;
30215;SDS011;17028;47.642;8.070;2022-10-16T03:32:26;4.30;;;1.48;;
30215;SDS011;17028;47.642;8.070;2022-10-16T03:37:29;2.20;;;1.30;;
30215;SDS011;17028;47.642;8.070;2022-10-16T03:42:30;6.47;;;1.52;;
30215;SDS011;17028;47.642;8.070;2022-10-16T03:47:31;3.80;;;1.58;;
30215;SDS011;17028;47.642;8.070;2022-10-16T03:52:33;2.17;;;1.38;;
30215;SDS011;17028;47.642;8.070;2022-10-16T03:57:34;1.98;;;1.30;;
30215;SDS011;17028;47.642;8.070;2022-10-16T04:02:35;2.10;;;1.38;;
30215;SDS011;17028;47.642;8.070;2022-10-16T04:07:36;1.80;;;1.30;;
30215;SDS011;17028;47.642;8.070;2022-10-16T04:12:38;1.98;;;1.35;;
30215;SDS011;17028;47.642;8.070;2022-10-16T04:17:39;1.58;;;1.10;;
30215;SDS011;17028;47.642;8.070;2022-10-16T04:22:41;2.70;;;1.20;;
30215;SDS011;17028;47.642;8.070;2022-10-16T04:27:42;2.70;;;1.20;;
30215;SDS011;17028;47.642;8.070;2022-10-16T04:32:43;1.88;;;1.30;;
30215;SDS011;17028;47.642;8.070;2022-10-16T04:37:48;2.55;;;1.45;;
30215;SDS011;17028;47.642;8.070;2022-10-16T04:42:51;1.90;;;1.30;;
30215;SDS011;17028;47.642;8.070;2022-10-16T04:47:52;1.85;;;1.20;;
30215;SDS011;17028;47.642;8.070;2022-10-16T04:52:53;1.70;;;1.20;;
30215;SDS011;17028;47.642;8.070;2022-10-16T04:57:54;2.60;;;1.73;;
30215;SDS011;17028;47.642;8.070;2022-10-16T05:02:55;2.80;;;1.58;;
30215;SDS011;17028;47.642;8.070;2022-10-16T05:07:56;2.47;;;1.50;;
30215;SDS011;17028;47.642;8.070;2022-10-16T05:12:57;2.78;;;1.50;;
30215;SDS011;17028;47.642;8.070;2022-10-16T05:17:58;2.10;;;1.38;;
30215;SDS011;17028;47.642;8.070;2022-10-16T05:22:59;2.75;;;1.38;;
30215;SDS011;17028;47.642;8.070;2022-10-16T05:28:00;3.72;;;1.60;;
30215;SDS011;17028;47.642;8.070;2022-10-16T05:33:01;2.17;;;1.40;;
30215;SDS011;17028;47.642;8.070;2022-10-16T05:38:02;1.63;;;1.23;;
30215;SDS011;17028;47.642;8.070;2022-10-16T05:43:03;1.70;;;1.20;;
30215;SDS011;17028;47.642;8.070;2022-10-16T05:48:04;1.67;;;1.17;;
30215;SDS011;17028;47.642;8.070;2022-10-16T05:53:05;1.60;;;1.02;;
30215;SDS011;17028;47.642;8.070;2022-10-16T05:58:06;2.55;;;1.20;;
30215;SDS011;17028;47.642;8.070;2022-10-16T06:03:07;1.50;;;1.10;;
30215;SDS011;17028;47.642;8.070;2022-10-16T06:08:08;4.43;;;1.40;;
30215;SDS011;17028;47.642;8.070;2022-10-16T06:13:10;2.22;;;1.33;;
30215;SDS011;17028;47.642;8.070;2022-10-16T06:18:12;2.13;;;1.20;;
30215;SDS011;17028;47.642;8.070;2022-10-16T06:23:13;1.77;;;1.30;;
30215;SDS011;17028;47.642;8.070;2022-10-16T06:28:14;1.83;;;0.98;;
30215;SDS011;17028;47.642;8.070;2022-10-16T06:33:15;1.50;;;1.10;;
30215;SDS011;17028;47.642;8.070;2022-10-16T06:38:16;2.00;;;1.10;;
30215;SDS011;17028;47.642;8.070;2022-10-16T06:43:17;1.23;;;0.95;;
30215;SDS011;17028;47.642;8.070;2022-10-16T06:48:18;1.60;;;1.00;;
30215;SDS011;17028;47.642;8.070;2022-10-16T06:53:19;1.23;;;0.90;;
30215;SDS011;17028;47.642;8.070;2022-10-16T06:58:21;1.55;;;1.00;;
30215;SDS011;17028;47.642;8.070;2022-10-16T07:03:22;1.17;;;0.90;;
30215;SDS011;17028;47.642;8.070;2022-10-16T07:08:23;1.15;;;0.90;;
30215;SDS011;17028;47.642;8.070;2022-10-16T07:13:24;2.03;;;1.35;;
30215;SDS011;17028;47.642;8.070;2022-10-16T07:18:25;3.28;;;1.30;;
30215;SDS011;17028;47.642;8.070;2022-10-16T07:23:29;2.60;;;1.17;;
30215;SDS011;17028;47.642;8.070;2022-10-16T07:28:30;2.05;;;1.30;;
30215;SDS011;17028;47.642;8.070;2022-10-16T07:33:32;2.22;;;1.13;;
30215;SDS011;17028;47.642;8.070;2022-10-16T07:38:35;3.28;;;1.60;;
30215;SDS011;17028;47.642;8.070;2022-10-16T07:43:36;3.30;;;2.08;;
30215;SDS011;17028;47.642;8.070;2022-10-16T07:48:37;3.42;;;2.13;;
30215;SDS011;17028;47.642;8.070;2022-10-16T07:53:38;4.03;;;2.25;;
30215;SDS011;17028;47.642;8.070;2022-10-16T07:58:39;4.20;;;2.67;;
30215;SDS011;17028;47.642;8.070;2022-10-16T08:03:44;9.10;;;3.17;;
30215;SDS011;17028;47.642;8.070;2022-10-16T08:08:47;5.00;;;2.60;;
30215;SDS011;17028;47.642;8.070;2022-10-16T08:13:48;4.45;;;2.60;;
30215;SDS011;17028;47.642;8.070;2022-10-16T08:18:49;7.65;;;3.42;;
30215;SDS011;17028;47.642;8.070;2022-10-16T08:23:52;7.18;;;3.92;;
30215;SDS011;17028;47.642;8.070;2022-10-16T08:28:54;9.75;;;4.85;;
30215;SDS011;17028;47.642;8.070;2022-10-16T08:33:56;7.70;;;4.35;;
30215;SDS011;17028;47.642;8.070;2022-10-16T08:38:57;9.15;;;4.20;;
30215;SDS011;17028;47.642;8.070;2022-10-16T08:44:20;6.88;;;3.78;;
30215;SDS011;17028;47.642;8.070;2022-10-16T08:49:32;8.02;;;4.18;;
30215;SDS011;17028;47.642;8.070;2022-10-16T08:59:46;4.93;;;3.20;;
30215;SDS011;17028;47.642;8.070;2022-10-16T09:10:11;7.45;;;2.47;;
30215;SDS011;17028;47.642;8.070;2022-10-16T09:16:22;3.23;;;1.83;;
30215;SDS011;17028;47.642;8.070;2022-10-16T09:21:21;6.78;;;1.65;;
30215;SDS011;17028;47.642;8.070;2022-10-16T09:26:24;4.25;;;1.92;;
30215;SDS011;17028;47.642;8.070;2022-10-16T09:31:26;5.00;;;1.52;;
30215;SDS011;17028;47.642;8.070;2022-10-16T09:36:27;3.45;;;1.70;;
30215;SDS011;17028;47.642;8.070;2022-10-16T09:41:29;2.65;;;1.65;;
30215;SDS011;17028;47.642;8.070;2022-10-16T09:46:31;3.13;;;1.65;;
30215;SDS011;17028;47.642;8.070;2022-10-16T09:51:35;2.63;;;1.73;;
30215;SDS011;17028;47.642;8.070;2022-10-16T09:56:37;2.15;;;1.50;;
30215;SDS011;17028;47.642;8.070;2022-10-16T10:01:42;4.07;;;1.60;;
30215;SDS011;17028;47.642;8.070;2022-10-16T10:06:57;2.80;;;1.30;;
30215;SDS011;17028;47.642;8.070;2022-10-16T10:11:59;6.88;;;1.80;;
30215;SDS011;17028;47.642;8.070;2022-10-16T10:43:22;4.80;;;1.80;;
30215;SDS011;17028;47.642;8.070;2022-10-16T10:48:39;9.60;;;1.73;;
30215;SDS011;17028;47.642;8.070;2022-10-16T10:53:51;2.63;;;1.20;;
30215;SDS011;17028;47.642;8.070;2022-10-16T10:59:06;3.13;;;1.73;;
30215;SDS011;17028;47.642;8.070;2022-10-16T11:09:36;3.95;;;1.50;;
30215;SDS011;17028;47.642;8.070;2022-10-16T11:14:44;2.22;;;1.40;;
30215;SDS011;17028;47.642;8.070;2022-10-16T11:25:34;2.92;;;1.30;;
30215;SDS011;17028;47.642;8.070;2022-10-16T11:41:29;2.78;;;1.35;;
30215;SDS011;17028;47.642;8.070;2022-10-16T11:46:36;5.40;;;1.52;;
30215;SDS011;17028;47.642;8.070;2022-10-16T11:57:28;4.57;;;1.42;;
30215;SDS011;17028;47.642;8.070;2022-10-16T12:02:44;4.93;;;1.50;;
30215;SDS011;17028;47.642;8.070;2022-10-16T12:08:02;2.28;;;1.30;;
30215;SDS011;17028;47.642;8.070;2022-10-16T12:18:29;5.07;;;1.33;;
30215;SDS011;17028;47.642;8.070;2022-10-16T12:23:31;3.08;;;1.27;;
30215;SDS011;17028;47.642;8.070;2022-10-16T12:28:39;2.03;;;1.00;;
30215;SDS011;17028;47.642;8.070;2022-10-16T12:33:41;1.75;;;1.15;;
30215;SDS011;17028;47.642;8.070;2022-10-16T12:38:58;1.98;;;1.08;;
30215;SDS011;17028;47.642;8.070;2022-10-16T12:44:00;4.75;;;1.20;;
30215;SDS011;17028;47.642;8.070;2022-10-16T12:54:13;2.15;;;1.20;;
30215;SDS011;17028;47.642;8.070;2022-10-16T12:59:38;3.42;;;1.05;;
30215;SDS011;17028;47.642;8.070;2022-10-16T13:10:09;3.13;;;1.13;;
30215;SDS011;17028;47.642;8.070;2022-10-16T13:20:55;2.33;;;1.00;;
30215;SDS011;17028;47.642;8.070;2022-10-16T13:31:25;2.65;;;1.15;;
30215;SDS011;17028;47.642;8.070;2022-10-16T13:36:27;2.53;;;1.23;;
30215;SDS011;17028;47.642;8.070;2022-10-16T13:46:32;2.08;;;1.00;;
30215;SDS011;17028;47.642;8.070;2022-10-16T13:51:34;2.55;;;1.10;;
30215;SDS011;17028;47.642;8.070;2022-10-16T13:56:36;2.58;;;1.10;;
30215;SDS011;17028;47.642;8.070;2022-10-16T14:01:42;2.63;;;1.25;;
30215;SDS011;17028;47.642;8.070;2022-10-16T14:06:45;2.35;;;1.15;;
30215;SDS011;17028;47.642;8.070;2022-10-16T14:11:51;5.28;;;1.30;;
30215;SDS011;17028;47.642;8.070;2022-10-16T14:16:55;4.45;;;1.35;;
30215;SDS011;17028;47.642;8.070;2022-10-16T14:21:57;2.35;;;1.35;;
30215;SDS011;17028;47.642;8.070;2022-10-16T14:26:59;4.35;;;1.50;;
30215;SDS011;17028;47.642;8.070;2022-10-16T14:32:02;3.00;;;1.33;;
30215;SDS011;17028;47.642;8.070;2022-10-16T14:42:17;2.55;;;1.42;;
30215;SDS011;17028;47.642;8.070;2022-10-16T14:47:24;2.60;;;1.40;;
30215;SDS011;17028;47.642;8.070;2022-10-16T14:52:27;2.28;;;1.10;;
30215;SDS011;17028;47.642;8.070;2022-10-16T14:57:35;4.07;;;1.58;;
30215;SDS011;17028;47.642;8.070;2022-10-16T15:02:39;2.60;;;1.40;;
30215;SDS011;17028;47.642;8.070;2022-10-16T15:07:40;2.67;;;1.30;;
30215;SDS011;17028;47.642;8.070;2022-10-16T15:12:41;2.00;;;1.17;;
30215;SDS011;17028;47.642;8.070;2022-10-16T15:17:43;3.22;;;1.70;;
30215;SDS011;17028;47.642;8.070;2022-10-16T15:22:44;3.38;;;1.52;;
30215;SDS011;17028;47.642;8.070;2022-10-16T15:27:45;4.93;;;2.17;;
30215;SDS011;17028;47.642;8.070;2022-10-16T15:32:46;2.20;;;1.55;;
30215;SDS011;17028;47.642;8.070;2022-10-16T15:37:47;4.10;;;1.95;;
30215;SDS011;17028;47.642;8.070;2022-10-16T15:42:48;2.35;;;1.65;;
30215;SDS011;17028;47.642;8.070;2022-10-16T15:47:50;2.38;;;1.30;;
30215;SDS011;17028;47.642;8.070;2022-10-16T15:52:51;1.80;;;1.40;;
30215;SDS011;17028;47.642;8.070;2022-10-16T15:57:52;1.98;;;1.27;;
30215;SDS011;17028;47.642;8.070;2022-10-16T16:02:53;1.30;;;0.95;;
30215;SDS011;17028;47.642;8.070;2022-10-16T16:07:56;1.88;;;1.10;;
30215;SDS011;17028;47.642;8.070;2022-10-16T16:12:57;1.27;;;0.93;;
30215;SDS011;17028;47.642;8.070;2022-10-16T16:17:59;1.30;;;1.00;;
30215;SDS011;17028;47.642;8.070;2022-10-16T16:23:02;1.20;;;0.90;;
30215;SDS011;17028;47.642;8.070;2022-10-16T16:28:03;1.92;;;1.10;;
30215;SDS011;17028;47.642;8.070;2022-10-16T16:33:04;1.80;;;1.08;;
30215;SDS011;17028;47.642;8.070;2022-10-16T16:38:05;1.98;;;1.20;;
30215;SDS011;17028;47.642;8.070;2022-10-16T16:43:06;3.30;;;1.55;;
30215;SDS011;17028;47.642;8.070;2022-10-16T16:48:08;1.63;;;1.25;;
30215;SDS011;17028;47.642;8.070;2022-10-16T16:53:09;1.73;;;1.15;;
30215;SDS011;17028;47.642;8.070;2022-10-16T16:58:10;2.58;;;1.20;;
30215;SDS011;17028;47.642;8.070;2022-10-16T17:03:11;2.60;;;1.50;;
30215;SDS011;17028;47.642;8.070;2022-10-16T17:08:12;2.22;;;1.50;;
30215;SDS011;17028;47.642;8.070;2022-10-16T17:13:13;2.35;;;1.40;;
30215;SDS011;17028;47.642;8.070;2022-10-16T17:18:14;3.22;;;1.60;;
30215;SDS011;17028;47.642;8.070;2022-10-16T17:23:16;2.50;;;1.60;;
30215;SDS011;17028;47.642;8.070;2022-10-16T17:28:18;2.72;;;1.60;;
30215;SDS011;17028;47.642;8.070;2022-10-16T17:33:19;4.45;;;2.85;;
30215;SDS011;17028;47.642;8.070;2022-10-16T17:38:20;4.50;;;2.50;;
30215;SDS011;17028;47.642;8.070;2022-10-16T17:43:22;4.43;;;2.38;;
30215;SDS011;17028;47.642;8.070;2022-10-16T17:48:23;3.67;;;1.92;;
30215;SDS011;17028;47.642;8.070;2022-10-16T17:53:24;2.97;;;1.80;;
30215;SDS011;17028;47.642;8.070;2022-10-16T17:58:25;2.50;;;1.60;;
30215;SDS011;17028;47.642;8.070;2022-10-16T18:03:26;4.40;;;2.38;;
30215;SDS011;17028;47.642;8.070;2022-10-16T18:08:27;3.67;;;2.38;;
30215;SDS011;17028;47.642;8.070;2022-10-16T18:13:29;4.32;;;2.38;;
30215;SDS011;17028;47.642;8.070;2022-10-16T18:18:30;3.75;;;2.38;;
30215;SDS011;17028;47.642;8.070;2022-10-16T18:23:32;4.18;;;2.60;;
30215;SDS011;17028;47.642;8.070;2022-10-16T18:28:35;4.55;;;2.50;;
30215;SDS011;17028;47.642;8.070;2022-10-16T18:33:36;6.18;;;2.90;;
30215;SDS011;17028;47.642;8.070;2022-10-16T18:38:38;3.67;;;2.33;;
30215;SDS011;17028;47.642;8.070;2022-10-16T18:43:40;6.70;;;2.88;;
30215;SDS011;17028;47.642;8.070;2022-10-16T18:48:42;8.38;;;3.20;;
30215;SDS011;17028;47.642;8.070;2022-10-16T18:53:44;4.32;;;2.67;;
30215;SDS011;17028;47.642;8.070;2022-10-16T18:58:47;5.65;;;3.30;;
30215;SDS011;17028;47.642;8.070;2022-10-16T19:03:53;6.32;;;3.35;;
30215;SDS011;17028;47.642;8.070;2022-10-16T19:08:56;4.85;;;3.10;;
30215;SDS011;17028;47.642;8.070;2022-10-16T19:13:57;4.45;;;2.65;;
30215;SDS011;17028;47.642;8.070;2022-10-16T19:19:00;8.27;;;3.25;;
30215;SDS011;17028;47.642;8.070;2022-10-16T19:24:03;5.53;;;3.08;;
30215;SDS011;17028;47.642;8.070;2022-10-16T19:29:05;4.35;;;2.83;;
30215;SDS011;17028;47.642;8.070;2022-10-16T19:34:08;4.38;;;2.85;;
30215;SDS011;17028;47.642;8.070;2022-10-16T19:39:11;4.30;;;2.40;;
30215;SDS011;17028;47.642;8.070;2022-10-16T19:44:14;4.60;;;2.80;;
30215;SDS011;17028;47.642;8.070;2022-10-16T19:49:16;4.30;;;2.72;;
30215;SDS011;17028;47.642;8.070;2022-10-16T19:54:20;8.48;;;3.22;;
30215;SDS011;17028;47.642;8.070;2022-10-16T19:59:21;4.80;;;3.00;;
30215;SDS011;17028;47.642;8.070;2022-10-16T20:04:22;5.85;;;3.30;;
30215;SDS011;17028;47.642;8.070;2022-10-16T20:09:23;4.53;;;2.95;;
30215;SDS011;17028;47.642;8.070;2022-10-16T20:14:24;4.85;;;2.70;;
30215;SDS011;17028;47.642;8.070;2022-10-16T20:19:25;4.07;;;2.50;;
30215;SDS011;17028;47.642;8.070;2022-10-16T20:24:26;6.45;;;2.65;;
30215;SDS011;17028;47.642;8.070;2022-10-16T20:29:27;4.47;;;2.83;;
30215;SDS011;17028;47.642;8.070;2022-10-16T20:34:28;5.55;;;2.53;;
30215;SDS011;17028;47.642;8.070;2022-10-16T20:39:29;4.78;;;2.40;;
30215;SDS011;17028;47.642;8.070;2022-10-16T20:44:31;4.03;;;2.10;;
30215;SDS011;17028;47.642;8.070;2022-10-16T20:49:33;6.63;;;2.42;;
30215;SDS011;17028;47.642;8.070;2022-10-16T20:54:34;4.20;;;2.33;;
30215;SDS011;17028;47.642;8.070;2022-10-16T20:59:35;4.43;;;2.00;;
30215;SDS011;17028;47.642;8.070;2022-10-16T21:04:36;5.38;;;1.90;;
30215;SDS011;17028;47.642;8.070;2022-10-16T21:09:37;4.70;;;1.95;;
30215;SDS011;17028;47.642;8.070;2022-10-16T21:14:39;3.75;;;2.10;;
30215;SDS011;17028;47.642;8.070;2022-10-16T21:19:40;3.78;;;1.70;;
30215;SDS011;17028;47.642;8.070;2022-10-16T21:24:41;4.32;;;1.95;;
30215;SDS011;17028;47.642;8.070;2022-10-16T21:29:42;4.10;;;1.90;;
30215;SDS011;17028;47.642;8.070;2022-10-16T21:34:43;3.83;;;1.70;;
30215;SDS011;17028;47.642;8.070;2022-10-16T21:39:44;2.75;;;1.65;;
30215;SDS011;17028;47.642;8.070;2022-10-16T21:44:45;3.20;;;1.73;;
30215;SDS011;17028;47.642;8.070;2022-10-16T21:49:46;3.55;;;1.90;;
30215;SDS011;17028;47.642;8.070;2022-10-16T21:54:47;2.95;;;1.60;;
30215;SDS011;17028;47.642;8.070;2022-10-16T21:59:48;2.80;;;1.60;;
30215;SDS011;17028;47.642;8.070;2022-10-16T22:04:49;4.00;;;1.90;;
30215;SDS011;17028;47.642;8.070;2022-10-16T22:09:50;3.80;;;1.67;;
30215;SDS011;17028;47.642;8.070;2022-10-16T22:14:51;2.95;;;1.70;;
30215;SDS011;17028;47.642;8.070;2022-10-16T22:19:52;3.55;;;1.80;;
30215;SDS011;17028;47.642;8.070;2022-10-16T22:24:53;4.88;;;2.35;;
30215;SDS011;17028;47.642;8.070;2022-10-16T22:29:55;4.00;;;1.92;;
30215;SDS011;17028;47.642;8.070;2022-10-16T22:34:56;6.35;;;2.55;;
30215;SDS011;17028;47.642;8.070;2022-10-16T22:39:57;5.90;;;2.83;;
30215;SDS011;17028;47.642;8.070;2022-10-16T22:44:58;4.57;;;2.83;;
30215;SDS011;17028;47.642;8.070;2022-10-16T22:49:59;5.55;;;2.35;;
30215;SDS011;17028;47.642;8.070;2022-10-16T22:55:00;4.43;;;2.30;;
30215;SDS011;17028;47.642;8.070;2022-10-16T23:00:01;5.03;;;2.50;;
30215;SDS011;17028;47.642;8.070;2022-10-16T23:05:02;6.25;;;2.10;;
30215;SDS011;17028;47.642;8.070;2022-10-16T23:10:04;2.92;;;1.80;;
30215;SDS011;17028;47.642;8.070;2022-10-16T23:15:06;4.45;;;1.85;;
30215;SDS011;17028;47.642;8.070;2022-10-16T23:20:08;3.20;;;1.65;;
30215;SDS011;17028;47.642;8.070;2022-10-16T23:25:09;2.75;;;1.73;;
30215;SDS011;17028;47.642;8.070;2022-10-16T23:30:10;2.90;;;1.80;;
30215;SDS011;17028;47.642;8.070;2022-10-16T23:35:11;5.38;;;1.90;;
30215;SDS011;17028;47.642;8.070;2022-10-16T23:40:12;2.38;;;1.60;;
30215;SDS011;17028;47.642;8.070;2022-10-16T23:45:13;2.72;;;1.50;;
30215;SDS011;17028;47.642;8.070;2022-10-16T23:50:14;4.25;;;1.40;;
30215;SDS011;17028;47.642;8.070;2022-10-16T23:55:15;2.85;;;1.50;;
